Time;durP1;ratioP1;P1;durP2;ratioP2;P2;SDS_P1;SDS_P2;PMS_P1;PMS_P2;Temp;Humidity;BMP_temperature;BMP_pressure;BME280_temperature;BME280_humidity;BME280_pressure;Samples;Min_cycle;Max_cycle;Signal;HPM_P1;HPM_P2
2022/02/05 00:00:45;;;;;;;1.08;0.90;;;;;;;4.64;100.00;95168.81;5073281;28;20125;-69
2022/02/05 00:03:38;;;;;;;1.35;1.08;;;;;;;4.58;100.00;95180.34;5073289;28;20023;-68
2022/02/05 00:06:05;;;;;;;1.27;0.93;;;;;;;4.52;100.00;95186.53;5073377;28;20502;-68
2022/02/05 00:11:30;;;;;;;0.98;0.70;;;;;;;4.47;100.00;95193.56;5073336;28;20032;-68
2022/02/05 00:41:27;;;;;;;1.38;0.80;;;;;;;4.12;100.00;95182.75;5033133;28;20056;-66
2022/02/05 00:43:56;;;;;;;2.08;1.20;;;;;;;4.10;100.00;95184.84;5032592;28;20095;-66
2022/02/05 00:46:24;;;;;;;1.15;0.80;;;;;;;4.05;100.00;95185.50;5032712;28;20108;-66
2022/02/05 00:48:53;;;;;;;2.08;1.10;;;;;;;4.04;100.00;95171.44;5031334;28;20026;-66
2022/02/05 00:51:25;;;;;;;1.40;1.00;;;;;;;4.03;100.00;95169.84;5031270;28;20026;-66
2022/02/05 00:54:02;;;;;;;0.82;0.82;;;;;;;4.01;100.00;95169.22;5032701;28;20029;-66
2022/02/05 00:59:22;;;;;;;1.10;1.00;;;;;;;3.95;100.00;95151.56;5013219;28;20030;-66
2022/02/05 01:01:48;;;;;;;2.35;1.20;;;;;;;3.93;100.00;95148.34;5031173;28;20024;-66
2022/02/05 01:04:14;;;;;;;1.17;1.00;;;;;;;3.92;100.00;95143.25;5032579;28;20022;-67
2022/02/05 01:06:40;;;;;;;1.10;1.00;;;;;;;3.88;100.00;95132.28;5030972;28;20626;-66
2022/02/05 01:09:13;;;;;;;3.28;1.02;;;;;;;3.86;100.00;95125.59;5032497;28;20025;-66
2022/02/05 01:11:42;;;;;;;1.45;1.08;;;;;;;3.85;100.00;95114.19;5032393;28;20415;-67
2022/02/05 01:14:14;;;;;;;1.58;1.08;;;;;;;3.82;100.00;95106.69;5031105;28;20036;-66
2022/02/05 01:19:35;;;;;;;2.15;1.23;;;;;;;3.79;100.00;95097.31;5032204;28;20117;-67
2022/02/05 01:21:58;;;;;;;1.20;1.10;;;;;;;3.78;100.00;95098.34;5031944;28;20101;-66
2022/02/05 01:24:24;;;;;;;1.25;1.15;;;;;;;3.79;100.00;95096.50;5032275;28;20476;-68
2022/02/05 01:27:01;;;;;;;2.00;1.13;;;;;;;3.77;100.00;95083.50;5032281;28;20109;-66
2022/02/05 01:29:49;;;;;;;1.30;1.20;;;;;;;3.76;100.00;95086.38;5030973;28;20403;-70
2022/02/05 01:32:20;;;;;;;1.38;1.27;;;;;;;3.75;100.00;95068.84;5032143;28;20075;-68
2022/02/05 01:58:51;;;;;;;0.38;0.38;;;;;;;2.26;100.00;95114.75;5037594;28;20278;-67
2022/02/05 02:12:07;;;;;;;0.40;0.40;;;;;;;1.78;100.00;95136.34;5035518;28;20084;-67
2022/02/05 02:22:56;;;;;;;0.60;0.43;;;;;;;1.61;100.00;95162.38;5035594;28;20108;-66
2022/02/05 02:28:10;;;;;;;0.57;0.35;;;;;;;1.59;100.00;95159.13;5035350;28;20025;-67
2022/02/05 02:30:41;;;;;;;0.30;0.30;;;;;;;1.59;100.00;95166.25;5035162;28;20025;-70
2022/02/05 02:33:19;;;;;;;0.63;0.40;;;;;;;1.56;100.00;95166.66;5033919;28;20117;-67
2022/02/05 02:35:51;;;;;;;0.85;0.50;;;;;;;1.53;100.00;95165.25;5033827;28;20025;-66
2022/02/05 02:38:20;;;;;;;0.40;0.40;;;;;;;1.52;100.00;95165.44;5034947;28;20037;-68
2022/02/05 02:41:00;;;;;;;0.60;0.55;;;;;;;1.49;100.00;95171.13;5035033;28;20083;-68
2022/02/05 02:43:34;;;;;;;1.85;0.47;;;;;;;1.45;100.00;95176.84;5033204;28;20094;-67
2022/02/05 02:45:59;;;;;;;0.77;0.43;;;;;;;1.43;100.00;95183.34;5034940;28;20467;-67
2022/02/05 02:48:26;;;;;;;0.30;0.30;;;;;;;1.41;100.00;95186.19;5033663;28;20064;-67
2022/02/05 02:59:09;;;;;;;0.40;0.40;;;;;;;1.37;100.00;95189.44;5034938;28;20083;-67
2022/02/05 03:01:37;;;;;;;0.50;0.50;;;;;;;1.34;100.00;95184.56;5034656;28;20480;-67
2022/02/05 03:04:02;;;;;;;1.00;0.50;;;;;;;1.30;100.00;95200.00;5034541;28;20052;-67
2022/02/05 03:06:31;;;;;;;0.60;0.50;;;;;;;1.26;100.00;95190.06;5034489;28;20021;-67
2022/02/05 03:09:05;;;;;;;1.17;0.52;;;;;;;1.25;100.00;95196.34;5034574;28;20021;-67
2022/02/05 03:11:33;;;;;;;0.45;0.40;;;;;;;1.19;100.00;95203.22;5033092;28;20021;-67
2022/02/05 03:13:59;;;;;;;0.52;0.47;;;;;;;1.14;100.00;95203.03;5034396;28;20033;-67
2022/02/05 03:16:28;;;;;;;0.60;0.50;;;;;;;1.09;100.00;95213.41;5033942;28;20048;-67
2022/02/05 03:19:09;;;;;;;0.43;0.40;;;;;;;1.04;100.00;95213.19;5034345;28;20030;-66
2022/02/05 03:21:35;;;;;;;0.60;0.47;;;;;;;0.96;100.00;95222.09;5033061;28;20026;-67
2022/02/05 03:24:05;;;;;;;2.55;0.43;;;;;;;0.92;100.00;95225.34;5032838;28;20025;-67
2022/02/05 03:26:33;;;;;;;0.50;0.50;;;;;;;0.91;100.00;95231.66;5032916;28;20029;-66
2022/02/05 03:29:06;;;;;;;0.55;0.40;;;;;;;0.88;100.00;95238.13;5033992;28;20169;-65
2022/02/05 03:31:33;;;;;;;1.13;0.45;;;;;;;0.89;100.00;95247.66;5034053;28;20025;-66
2022/02/05 03:33:58;;;;;;;1.83;0.70;;;;;;;0.90;100.00;95249.28;5032693;28;20079;-67
2022/02/05 03:36:23;;;;;;;1.75;0.65;;;;;;;0.91;100.00;95264.09;5033936;28;20025;-67
2022/02/05 03:38:49;;;;;;;0.50;0.50;;;;;;;0.90;100.00;95257.22;5033800;28;20386;-68
2022/02/05 03:41:14;;;;;;;0.52;0.50;;;;;;;0.90;100.00;95265.13;5032697;28;20022;-67
2022/02/05 03:43:40;;;;;;;1.10;0.50;;;;;;;0.90;100.00;95262.47;5033722;28;20056;-66
2022/02/05 03:46:07;;;;;;;0.60;0.52;;;;;;;0.88;100.00;95258.44;5033668;28;20025;-67
2022/02/05 03:48:33;;;;;;;0.55;0.40;;;;;;;0.86;100.00;95269.16;5033718;28;20723;-67
2022/02/05 03:50:58;;;;;;;1.05;0.60;;;;;;;0.84;100.00;95269.34;5033606;28;20021;-67
2022/02/05 03:53:24;;;;;;;0.50;0.50;;;;;;;0.82;100.00;95271.38;5018941;28;20033;-67
2022/02/05 03:55:49;;;;;;;1.33;0.60;;;;;;;0.82;100.00;95267.94;5031853;28;20484;-67
2022/02/05 03:58:14;;;;;;;1.30;0.50;;;;;;;0.81;100.00;95272.41;5033299;28;20026;-67
2022/02/05 04:00:40;;;;;;;0.50;0.50;;;;;;;0.81;100.00;95272.41;5033715;28;20076;-67
2022/02/05 04:03:09;;;;;;;0.60;0.55;;;;;;;0.80;100.00;95277.88;5032521;28;20025;-68
2022/02/05 04:05:42;;;;;;;1.30;0.52;;;;;;;0.79;100.00;95278.88;5032099;28;20595;-67
2022/02/05 04:08:10;;;;;;;1.70;0.70;;;;;;;0.78;100.00;95278.06;5032259;28;20120;-67
2022/02/05 04:10:44;;;;;;;0.38;0.38;;;;;;;0.76;100.00;95276.63;5033324;28;20034;-67
2022/02/05 04:16:08;;;;;;;1.13;0.60;;;;;;;0.69;100.00;95292.44;5033050;28;20064;-66
2022/02/05 04:18:34;;;;;;;0.75;0.60;;;;;;;0.66;100.00;95294.69;5032020;28;20458;-67
2022/02/05 04:21:00;;;;;;;0.60;0.50;;;;;;;0.61;100.00;95303.16;5032206;28;20029;-67
2022/02/05 04:23:26;;;;;;;0.50;0.50;;;;;;;0.54;100.00;95303.16;5033091;28;20025;-66
2022/02/05 04:25:51;;;;;;;0.65;0.50;;;;;;;0.47;100.00;95299.66;5032979;28;20051;-66
2022/02/05 04:28:16;;;;;;;0.47;0.40;;;;;;;0.42;100.00;95304.69;5032993;28;20027;-67
2022/02/05 04:30:42;;;;;;;0.40;0.40;;;;;;;0.40;100.00;95313.81;5033166;28;20476;-67
2022/02/05 04:33:07;;;;;;;0.60;0.50;;;;;;;0.34;100.00;95331.25;5032888;28;20183;-67
2022/02/05 04:35:33;;;;;;;0.90;0.70;;;;;;;0.31;100.00;95342.16;5032943;28;20041;-67
2022/02/05 04:38:01;;;;;;;0.75;0.60;;;;;;;0.26;100.00;95347.19;5031568;28;20021;-67
2022/02/05 04:40:34;;;;;;;0.55;0.50;;;;;;;0.19;100.00;95355.06;5031226;28;20037;-67
2022/02/05 04:51:31;;;;;;;1.17;0.50;;;;;;;-0.15;100.00;95358.47;5033070;28;20071;-67
2022/02/05 04:56:34;;;;;;;2.03;0.63;;;;;;;-0.21;100.00;95369.78;5032643;28;20540;-67
2022/02/05 05:20:24;;;;;;;2.00;0.70;;;;;;;-0.57;100.00;95393.56;5032417;28;20091;-66
2022/02/05 05:22:50;;;;;;;1.73;0.60;;;;;;;-0.60;100.00;95394.75;5032163;28;20388;-67
2022/02/05 05:25:22;;;;;;;0.65;0.52;;;;;;;-0.65;100.00;95398.97;5030957;28;20025;-67
2022/02/05 05:27:47;;;;;;;1.15;0.60;;;;;;;-0.72;100.00;95398.06;5031309;28;20369;-67
2022/02/05 05:30:13;;;;;;;0.55;0.55;;;;;;;-0.77;100.00;95406.50;5030979;28;20028;-66
2022/02/05 05:32:59;;;;;;;0.60;0.50;;;;;;;-0.85;100.00;95401.38;5032159;28;20032;-66
2022/02/05 05:35:24;;;;;;;0.63;0.57;;;;;;;-0.88;100.00;95407.00;5032077;28;20025;-67
2022/02/05 05:37:50;;;;;;;0.77;0.70;;;;;;;-0.90;100.00;95419.50;5031015;28;20076;-67
2022/02/05 05:40:16;;;;;;;1.30;0.63;;;;;;;-0.95;100.00;95414.81;5032015;28;20120;-66
2022/02/05 05:42:46;;;;;;;0.90;0.80;;;;;;;-0.96;100.00;95418.47;5030878;28;20495;-68
2022/02/05 05:45:32;;;;;;;0.82;0.80;;;;;;;-0.98;100.00;95414.34;5031966;28;20025;-67
2022/02/05 05:48:11;;;;;;;1.38;0.90;;;;;;;-1.01;100.00;95420.81;5030891;28;20087;-66
2022/02/05 05:53:29;;;;;;;1.20;1.10;;;;;;;-1.02;100.00;95418.38;5032248;28;20029;-67
2022/02/05 05:55:57;;;;;;;1.08;0.80;;;;;;;-1.00;100.00;95421.63;5024061;28;20038;-67
2022/02/05 05:58:22;;;;;;;0.60;0.60;;;;;;;-1.01;100.00;95420.00;5031962;28;20106;-67
2022/02/05 06:00:51;;;;;;;1.13;0.70;;;;;;;-1.03;100.00;95416.75;5032028;28;20476;-67
2022/02/05 06:03:19;;;;;;;0.50;0.50;;;;;;;-1.01;100.00;95414.75;5030542;28;20018;-66
2022/02/05 06:05:44;;;;;;;0.68;0.60;;;;;;;-0.99;100.00;95410.09;5032292;28;20064;-67
2022/02/05 06:08:10;;;;;;;1.85;0.60;;;;;;;-1.01;100.00;95410.28;5027877;28;20104;-67
2022/02/05 06:10:39;;;;;;;4.53;0.55;;;;;;;-1.03;100.00;95414.94;5029746;28;20030;-67
2022/02/05 06:13:13;;;;;;;0.70;0.70;;;;;;;-1.07;100.00;95411.06;5031006;28;20022;-67
2022/02/05 06:15:41;;;;;;;0.68;0.60;;;;;;;-1.10;100.00;95413.22;5030226;28;20099;-67
2022/02/05 06:18:08;;;;;;;0.60;0.57;;;;;;;-1.13;100.00;95421.47;5044471;22;20049;-62
2022/02/05 06:20:34;;;;;;;2.33;0.80;;;;;;;-1.18;100.00;95416.78;5032840;28;20461;-60
2022/02/05 06:23:02;;;;;;;1.15;0.95;;;;;;;-1.22;100.00;95418.94;5025267;28;20097;-62
2022/02/05 06:25:27;;;;;;;0.65;0.63;;;;;;;-1.25;100.00;95421.94;5016392;28;20029;-62
2022/02/05 06:27:53;;;;;;;2.95;1.83;;;;;;;-1.28;100.00;95427.56;5015512;28;20092;-63
2022/02/05 06:30:18;;;;;;;2.03;1.40;;;;;;;-1.28;100.00;95419.69;5015344;28;20440;-62
2022/02/05 06:32:47;;;;;;;1.35;0.82;;;;;;;-1.26;100.00;95416.88;5014273;28;20029;-62
2022/02/05 06:35:12;;;;;;;1.60;0.77;;;;;;;-1.21;100.00;95420.56;5012374;28;20072;-61
2022/02/05 06:37:38;;;;;;;0.70;0.70;;;;;;;-1.21;100.00;95417.13;5028259;28;20057;-62
2022/02/05 06:40:06;;;;;;;0.60;0.60;;;;;;;-1.20;100.00;95422.19;5021770;28;20052;-61
2022/02/05 06:42:47;;;;;;;0.68;0.60;;;;;;;-1.24;100.00;95420.94;5024267;28;20101;-63
2022/02/05 06:45:16;;;;;;;1.50;0.70;;;;;;;-1.25;100.00;95427.19;5025442;28;20053;-62
2022/02/05 06:47:44;;;;;;;1.35;0.85;;;;;;;-1.32;100.00;95428.91;5027671;28;20474;-63
2022/02/05 06:50:10;;;;;;;0.80;0.80;;;;;;;-1.34;100.00;95430.09;5034952;28;20400;-61
2022/02/05 06:52:45;;;;;;;1.83;1.00;;;;;;;-1.41;100.00;95439.72;5024761;28;20018;-65
2022/02/05 06:55:11;;;;;;;0.70;0.70;;;;;;;-1.39;100.00;95437.75;5014817;28;20092;-61
2022/02/05 06:57:36;;;;;;;1.80;0.77;;;;;;;-1.41;100.00;95447.59;5014857;28;20026;-61
2022/02/05 07:00:06;;;;;;;1.00;0.90;;;;;;;-1.49;100.00;95448.50;5021247;28;20036;-64
2022/02/05 07:02:32;;;;;;;3.42;0.80;;;;;;;-1.58;100.00;95452.22;5018714;28;20052;-62
2022/02/05 07:04:57;;;;;;;1.25;0.80;;;;;;;-1.63;100.00;95451.94;5022969;28;20073;-65
2022/02/05 07:07:23;;;;;;;2.10;0.93;;;;;;;-1.69;100.00;95450.84;5013371;28;20025;-63
2022/02/05 07:09:48;;;;;;;2.38;0.85;;;;;;;-1.73;100.00;95456.66;5019215;28;20075;-63
2022/02/05 07:12:14;;;;;;;1.00;0.90;;;;;;;-1.78;100.00;95455.38;5030021;28;20025;-61
2022/02/05 07:15:02;;;;;;;1.33;0.77;;;;;;;-1.80;100.00;95457.38;5031249;28;20120;-63
2022/02/05 07:17:40;;;;;;;1.25;0.93;;;;;;;-1.80;100.00;95459.19;5024133;28;20403;-65
2022/02/05 07:20:21;;;;;;;0.82;0.70;;;;;;;-1.79;100.00;95458.19;5028849;28;20030;-63
2022/02/05 07:31:02;;;;;;;0.80;0.80;;;;;;;-1.97;100.00;95465.56;5020673;28;20662;-65
2022/02/05 07:33:28;;;;;;;1.02;0.90;;;;;;;-1.93;100.00;95466.84;5020097;28;20365;-66
2022/02/05 07:35:56;;;;;;;5.68;1.17;;;;;;;-1.89;100.00;95463.69;5023670;28;20033;-64
2022/02/05 07:38:21;;;;;;;2.10;1.63;;;;;;;-1.86;100.00;95471.19;5025000;28;20083;-63
2022/02/05 07:40:48;;;;;;;2.13;0.90;;;;;;;-1.83;100.00;95465.59;5032630;28;20120;-65
2022/02/05 07:43:13;;;;;;;1.42;0.98;;;;;;;-1.78;100.00;95478.19;5021033;28;20022;-65
2022/02/05 07:45:38;;;;;;;1.35;0.82;;;;;;;-1.70;100.00;95474.69;5021176;28;20034;-65
2022/02/05 07:48:04;;;;;;;2.83;1.00;;;;;;;-1.54;100.00;95469.25;5013858;28;20031;-64
2022/02/05 07:50:29;;;;;;;3.55;1.38;;;;;;;-1.33;100.00;95460.63;5013962;28;20511;-63
2022/02/05 07:52:55;;;;;;;3.85;1.70;;;;;;;-1.09;100.00;95454.28;5040119;28;20088;-63
2022/02/05 07:55:20;;;;;;;3.95;2.00;;;;;;;-0.94;100.00;95453.25;5022317;28;20034;-64
2022/02/05 07:57:45;;;;;;;7.32;3.08;;;;;;;-0.77;100.00;95453.03;5012286;28;20021;-65
2022/02/05 08:00:11;;;;;;;7.35;1.92;;;;;;;-0.62;100.00;95449.38;5013767;28;20065;-62
2022/02/05 08:02:36;;;;;;;3.22;1.70;;;;;;;-0.52;100.00;95438.53;5013960;28;20473;-64
2022/02/05 08:05:02;;;;;;;3.47;1.75;;;;;;;-0.49;100.00;95445.25;5013806;28;20033;-63
2022/02/05 08:07:27;;;;;;;1.95;1.35;;;;;;;-0.45;100.00;95449.94;5013553;28;20026;-63
2022/02/05 08:10:00;;;;;;;1.75;1.20;;;;;;;-0.37;100.00;95449.00;5013680;28;20033;-62
2022/02/05 08:12:27;;;;;;;2.35;1.35;;;;;;;-0.20;100.00;95449.56;5013561;28;20026;-63
2022/02/05 08:14:54;;;;;;;1.98;1.40;;;;;;;-0.05;100.00;95453.75;5013538;28;20036;-64
2022/02/05 08:17:32;;;;;;;1.70;1.13;;;;;;;0.08;100.00;95460.94;5014456;28;20045;-64
2022/02/05 08:19:57;;;;;;;2.85;1.17;;;;;;;0.26;100.00;95458.66;5022507;28;20040;-65
2022/02/05 08:22:23;;;;;;;4.18;1.40;;;;;;;0.37;100.00;95462.59;5012092;28;20021;-65
2022/02/05 08:24:49;;;;;;;2.45;1.40;;;;;;;0.52;100.00;95467.75;5014640;28;20081;-66
2022/02/05 08:27:16;;;;;;;3.13;1.40;;;;;;;0.65;100.00;95470.47;5015720;28;20018;-65
2022/02/05 08:29:52;;;;;;;5.65;1.63;;;;;;;0.71;100.00;95474.16;5013155;28;20032;-64
2022/02/05 08:32:19;;;;;;;4.43;1.38;;;;;;;0.78;100.00;95477.66;5013195;28;20060;-62
2022/02/05 08:34:45;;;;;;;1.40;1.05;;;;;;;0.80;100.00;95486.19;5011966;28;20434;-62
2022/02/05 08:37:11;;;;;;;3.72;1.95;;;;;;;0.85;100.00;95489.03;5013132;28;20041;-62
2022/02/05 08:39:36;;;;;;;2.58;1.23;;;;;;;0.90;100.00;95481.38;5011889;28;20029;-61
2022/02/05 08:42:03;;;;;;;4.75;1.85;;;;;;;0.96;100.00;95485.84;5012915;28;20097;-61
2022/02/05 08:44:28;;;;;;;4.60;1.88;;;;;;;1.03;100.00;95485.88;4995503;28;20034;-61
2022/02/05 08:46:56;;;;;;;4.65;1.70;;;;;;;1.14;100.00;95490.59;5011675;28;20040;-62
2022/02/05 08:49:21;;;;;;;2.92;1.63;;;;;;;1.43;100.00;95481.59;5012871;28;20037;-59
2022/02/05 08:51:46;;;;;;;3.28;1.88;;;;;;;1.63;100.00;95466.63;5012877;28;20022;-61
2022/02/05 08:54:16;;;;;;;4.03;2.03;;;;;;;1.93;100.00;95468.88;5012893;28;20026;-61
2022/02/05 08:56:42;;;;;;;3.72;1.67;;;;;;;2.16;100.00;95468.50;5011654;28;20508;-60
2022/02/05 08:59:07;;;;;;;2.90;1.50;;;;;;;2.39;100.00;95466.28;5011468;28;20040;-61
2022/02/05 09:01:55;;;;;;;3.15;1.35;;;;;;;2.69;100.00;95460.53;5030106;28;20101;-60
2022/02/05 09:07:09;;;;;;;2.00;1.45;;;;;;;3.09;100.00;95440.88;4992851;28;20242;-61
2022/02/05 09:09:46;;;;;;;2.72;1.48;;;;;;;3.26;100.00;95451.84;5012739;28;20104;-63
2022/02/05 09:14:56;;;;;;;3.17;1.20;;;;;;;3.44;100.00;95446.63;5013024;28;20077;-61
2022/02/05 09:17:22;;;;;;;2.67;1.33;;;;;;;3.51;100.00;95443.16;5014989;28;20041;-60
2022/02/05 09:19:48;;;;;;;2.83;1.38;;;;;;;3.55;100.00;95441.69;5023096;28;20056;-60
2022/02/05 09:22:13;;;;;;;1.77;1.40;;;;;;;3.67;100.00;95438.16;5011327;28;20112;-59
2022/02/05 09:24:39;;;;;;;1.60;1.50;;;;;;;3.89;100.00;95433.31;5011214;28;20160;-61
2022/02/05 09:27:08;;;;;;;2.47;1.60;;;;;;;4.11;100.00;95427.66;5014397;28;20036;-59
2022/02/05 09:29:41;;;;;;;4.05;1.95;;;;;;;4.21;100.00;95420.03;5032320;28;20033;-60
2022/02/05 09:32:06;;;;;;;;;;;;;;;4.35;100.00;95418.91;5031936;28;20021;-62
2022/02/05 09:34:34;;;;;;;3.35;1.30;;;;;;;4.27;100.00;95417.34;5032374;28;20359;-62
2022/02/05 09:36:59;;;;;;;3.50;1.70;;;;;;;4.56;100.00;95407.91;5032347;28;20045;-63
2022/02/05 09:39:25;;;;;;;3.33;1.60;;;;;;;4.64;100.00;95404.94;5032101;28;20400;-61
2022/02/05 09:41:51;;;;;;;2.65;1.48;;;;;;;4.68;100.00;95399.22;5032130;28;20025;-62
2022/02/05 09:44:16;;;;;;;3.00;1.13;;;;;;;4.75;100.00;95387.50;5032167;28;20101;-63
2022/02/05 09:46:42;;;;;;;3.30;1.33;;;;;;;4.69;100.00;95377.78;5032307;28;20120;-57
2022/02/05 09:49:08;;;;;;;1.40;1.17;;;;;;;4.84;100.00;95372.09;5030970;28;20017;-60
2022/02/05 09:51:37;;;;;;;3.25;1.00;;;;;;;5.14;100.00;95353.56;5027435;28;20535;-61
2022/02/05 09:54:05;;;;;;;5.50;1.58;;;;;;;5.41;100.00;95346.84;5029461;28;20033;-61
2022/02/05 09:56:34;;;;;;;4.22;1.52;;;;;;;5.64;100.00;95339.97;5030912;28;20040;-59
2022/02/05 09:59:00;;;;;;;4.68;1.00;;;;;;;5.79;100.00;95327.06;5033486;28;20033;-61
2022/02/05 10:01:33;;;;;;;2.53;1.25;;;;;;;5.88;100.00;95315.06;5032584;28;20525;-59
2022/02/05 10:03:59;;;;;;;3.85;1.15;;;;;;;5.88;100.00;95316.94;5032552;28;20391;-59
2022/02/05 10:06:33;;;;;;;2.72;1.20;;;;;;;5.88;100.00;95307.09;5033168;28;20029;-61
2022/02/05 10:09:07;;;;;;;3.22;1.15;;;;;;;6.08;100.00;95310.28;5034505;28;20037;-62
2022/02/05 10:11:56;;;;;;;1.15;0.85;;;;;;;5.78;100.00;95325.47;5033533;28;20108;-60
2022/02/05 10:14:26;;;;;;;4.53;1.23;;;;;;;5.95;100.00;95331.75;5033541;28;20030;-59
2022/02/05 10:16:55;;;;;;;1.55;1.00;;;;;;;6.25;100.00;95341.47;5032542;28;20056;-59
2022/02/05 10:19:22;;;;;;;2.88;1.00;;;;;;;6.43;100.00;95343.22;5033197;28;20046;-62
2022/02/05 10:22:02;;;;;;;1.70;0.82;;;;;;;6.48;100.00;95365.41;5032149;28;20120;-61
2022/02/05 10:24:29;;;;;;;1.70;0.90;;;;;;;6.73;100.00;95375.00;5032760;28;20164;-59
2022/02/05 10:26:55;;;;;;;2.20;1.10;;;;;;;6.77;100.00;95398.28;5032239;28;20029;-64
2022/02/05 10:29:21;;;;;;;2.63;1.00;;;;;;;6.98;100.00;95426.97;5032638;28;20017;-60
2022/02/05 10:32:07;;;;;;;1.92;0.93;;;;;;;7.12;100.00;95453.34;5033433;28;20025;-58
2022/02/05 10:35:36;;;;;;;1.52;0.90;;;;;;;7.14;100.00;95477.88;5031821;28;20112;-58
2022/02/05 10:37:48;;;;;;;5.05;1.02;;;;;;;7.43;100.00;95486.78;5017336;28;20132;-58
2022/02/05 10:40:20;;;;;;;3.22;1.13;;;;;;;7.46;100.00;95511.09;5034434;28;20096;-58
2022/02/05 10:43:05;;;;;;;3.33;1.35;;;;;;;7.70;100.00;95540.34;5034982;28;20476;-62
2022/02/05 10:45:51;;;;;;;3.70;1.38;;;;;;;7.74;100.00;95590.34;5034871;28;20037;-62
2022/02/05 10:48:22;;;;;;;5.63;1.20;;;;;;;7.67;100.00;95610.97;5034580;28;20101;-64
2022/02/05 10:50:49;;;;;;;1.30;1.00;;;;;;;7.76;100.00;95619.44;5034863;28;20032;-63
2022/02/05 10:53:35;;;;;;;1.77;1.17;;;;;;;8.06;100.00;95624.59;5034720;28;20029;-64
2022/02/05 10:58:58;;;;;;;2.53;1.05;;;;;;;7.99;100.00;95694.06;5034703;28;20555;-62
2022/02/05 11:07:03;;;;;;;1.77;0.90;;;;;;;7.64;100.00;95742.09;5034503;28;20036;-62
2022/02/05 11:09:28;;;;;;;1.05;0.82;;;;;;;7.54;100.00;95763.16;5034557;28;20588;-64
2022/02/05 11:20:10;;;;;;;2.85;0.88;;;;;;;8.26;100.00;95792.34;5022196;28;20088;-63
2022/02/05 11:22:42;;;;;;;1.30;0.98;;;;;;;8.58;100.00;95814.16;5014480;28;20104;-64
2022/02/05 11:25:09;;;;;;;2.85;1.10;;;;;;;8.73;100.00;95840.38;5017201;28;20029;-64
2022/02/05 11:27:40;;;;;;;1.13;0.82;;;;;;;8.75;100.00;95879.16;5014340;28;20034;-64
2022/02/05 11:30:31;;;;;;;2.00;0.93;;;;;;;9.02;100.00;95916.09;5012992;28;20025;-62
2022/02/05 11:33:02;;;;;;;1.77;0.80;;;;;;;8.87;100.00;95933.38;4983376;28;20188;-64
2022/02/05 11:38:38;;;;;;;1.63;1.10;;;;;;;8.89;100.00;95903.75;5033576;28;20167;-58
2022/02/05 11:41:30;;;;;;;2.00;0.85;;;;;;;8.98;100.00;95903.16;5033749;28;20026;-60
2022/02/05 11:44:15;;;;;;;1.80;1.00;;;;;;;8.90;100.00;95919.59;5033858;28;20388;-58
2022/02/05 11:47:04;;;;;;;2.13;0.80;;;;;;;8.94;100.00;95919.91;5033608;28;20037;-61
2022/02/05 11:49:55;;;;;;;1.67;0.80;;;;;;;8.82;100.00;95948.50;5028097;28;20115;-61
2022/02/05 11:52:47;;;;;;;2.45;0.98;;;;;;;9.15;100.00;95947.91;5033598;28;20021;-61
2022/02/05 11:55:38;;;;;;;2.72;1.00;;;;;;;8.88;100.00;95990.31;5031415;28;20052;-60
2022/02/05 11:58:22;;;;;;;3.42;0.88;;;;;;;8.80;100.00;95980.78;5033501;28;20434;-60
2022/02/05 12:00:57;;;;;;;2.50;1.10;;;;;;;9.05;100.00;96003.78;5033379;28;20088;-63
2022/02/05 12:03:30;;;;;;;1.23;0.63;;;;;;;9.25;100.00;95991.69;5033476;28;20029;-59
2022/02/05 12:06:03;;;;;;;1.60;0.80;;;;;;;9.36;100.00;96014.13;5033555;28;20115;-58
2022/02/05 12:08:42;;;;;;;1.98;0.80;;;;;;;9.40;100.00;96025.97;5031265;28;20033;-61
2022/02/05 12:11:29;;;;;;;1.95;0.90;;;;;;;9.16;100.00;96027.84;5030999;28;20029;-61
2022/02/05 12:14:32;;;;;;;1.55;0.70;;;;;;;9.28;100.00;96027.84;5032244;28;20025;-59
2022/02/05 12:17:14;;;;;;;2.75;0.90;;;;;;;9.11;100.00;96032.25;4990425;28;20085;-63
2022/02/05 12:19:59;;;;;;;1.75;0.90;;;;;;;8.89;100.00;96022.13;5029687;28;20076;-64
2022/02/05 12:25:58;;;;;;;2.72;1.00;;;;;;;9.06;100.00;96024.94;5032405;28;20460;-63
2022/02/05 12:28:38;;;;;;;2.92;0.90;;;;;;;9.17;100.00;96017.97;5031671;28;20025;-64
2022/02/05 12:31:19;;;;;;;2.33;0.80;;;;;;;9.23;100.00;96025.88;5014099;28;20037;-63
2022/02/05 12:33:48;;;;;;;2.20;1.00;;;;;;;9.44;100.00;96028.97;5030701;28;20045;-64
2022/02/05 12:36:28;;;;;;;1.10;0.82;;;;;;;9.35;100.00;96009.84;5032034;28;20099;-63
2022/02/05 12:38:55;;;;;;;3.60;0.82;;;;;;;9.42;100.00;96026.53;5031452;28;20027;-64
2022/02/05 12:41:22;;;;;;;1.45;0.80;;;;;;;9.57;100.00;96026.06;5031941;28;20048;-64
2022/02/05 12:43:54;;;;;;;1.30;0.75;;;;;;;9.33;100.00;96046.66;5031076;28;20523;-64
2022/02/05 12:46:56;;;;;;;2.08;0.82;;;;;;;9.23;100.00;96067.84;5031510;28;20084;-64
2022/02/05 12:51:52;;;;;;;3.88;0.90;;;;;;;9.71;100.00;96046.16;5030642;28;20030;-65
2022/02/05 12:54:25;;;;;;;2.85;0.88;;;;;;;9.71;100.00;96058.72;5031948;28;20037;-65
2022/02/05 12:56:53;;;;;;;1.02;0.68;;;;;;;9.70;100.00;96065.94;5031153;28;20048;-65
2022/02/05 12:59:27;;;;;;;2.88;0.80;;;;;;;9.83;100.00;96033.56;5030244;28;20040;-65
2022/02/05 13:01:57;;;;;;;2.35;0.60;;;;;;;10.00;100.00;96036.31;5001308;28;20022;-65
2022/02/05 13:04:30;;;;;;;1.60;1.10;;;;;;;9.57;100.00;96058.16;4985136;28;20045;-65
2022/02/05 13:07:21;;;;;;;1.20;0.98;;;;;;;9.55;100.00;96071.78;5031216;28;20135;-65
2022/02/05 13:09:58;;;;;;;2.15;0.80;;;;;;;9.65;100.00;96044.41;5031671;28;20113;-65
2022/02/05 13:12:38;;;;;;;2.75;0.77;;;;;;;9.75;100.00;96033.94;5037855;28;20035;-65
2022/02/05 13:29:16;;;;;;;1.08;0.70;;;;;;;9.71;100.00;96029.31;5029915;28;20036;-64
2022/02/05 13:34:25;;;;;;;1.63;0.93;;;;;;;9.35;100.00;96057.16;5031063;28;20604;-65
2022/02/05 13:44:24;;;;;;;1.65;0.75;;;;;;;9.35;100.00;96033.09;5031315;28;20040;-64
2022/02/05 13:47:05;;;;;;;1.48;0.77;;;;;;;8.91;100.00;96062.00;5030992;28;20029;-64
2022/02/05 13:49:31;;;;;;;1.73;0.80;;;;;;;9.06;100.00;96070.38;5031477;28;20141;-64
2022/02/05 13:52:09;;;;;;;2.97;1.10;;;;;;;9.03;100.00;96075.38;5013225;28;20021;-64
2022/02/05 13:54:40;;;;;;;1.27;0.70;;;;;;;8.96;100.00;96064.78;5029929;28;20032;-63
2022/02/05 13:57:06;;;;;;;0.95;0.70;;;;;;;8.95;100.00;96057.81;5030974;28;20083;-64
2022/02/05 13:59:34;;;;;;;1.13;0.80;;;;;;;8.94;100.00;96067.69;5014332;28;20369;-65
2022/02/05 14:02:20;;;;;;;3.47;0.98;;;;;;;8.95;100.00;96065.81;5033441;28;20037;-64
2022/02/05 14:05:27;;;;;;;1.83;0.98;;;;;;;9.01;100.00;96054.22;5034559;28;20511;-64
2022/02/05 14:07:53;;;;;;;2.80;1.13;;;;;;;9.08;100.00;96046.91;5025120;28;20048;-63
2022/02/05 14:10:21;;;;;;;2.70;1.10;;;;;;;8.90;100.00;96060.34;5034816;28;20100;-64
2022/02/05 14:12:55;;;;;;;2.38;1.00;;;;;;;8.93;100.00;96059.91;5033640;28;20028;-64
2022/02/05 14:15:28;;;;;;;1.63;0.90;;;;;;;9.00;100.00;96052.56;5033395;28;20038;-64
2022/02/05 14:18:13;;;;;;;2.25;0.80;;;;;;;8.97;100.00;96061.88;5033625;28;20631;-65
2022/02/05 14:20:54;;;;;;;2.60;0.82;;;;;;;8.99;100.00;96050.94;5031987;28;20049;-63
2022/02/05 14:23:24;;;;;;;1.88;0.90;;;;;;;8.89;100.00;96058.72;5033418;28;20112;-63
2022/02/05 14:25:54;;;;;;;2.17;1.00;;;;;;;8.48;100.00;96073.75;5029039;28;20396;-63
2022/02/05 14:41:48;;;;;;;2.45;0.77;;;;;;;7.99;100.00;96046.22;5034554;28;20087;-64
2022/02/05 14:44:18;;;;;;;2.10;1.15;;;;;;;7.87;100.00;96036.53;5031921;28;20026;-64
2022/02/05 14:46:46;;;;;;;1.20;0.73;;;;;;;7.84;100.00;96019.13;5033339;28;20116;-63
2022/02/05 14:49:13;;;;;;;1.27;0.90;;;;;;;7.88;100.00;96028.31;5033401;28;20029;-63
2022/02/05 14:51:39;;;;;;;2.15;0.70;;;;;;;7.76;100.00;96027.44;5032558;28;20025;-63
2022/02/05 14:54:04;;;;;;;3.50;0.93;;;;;;;7.57;100.00;96037.28;5033135;28;20034;-63
2022/02/05 14:56:33;;;;;;;1.92;0.95;;;;;;;7.60;100.00;96030.69;5016051;28;20032;-64
2022/02/05 14:59:02;;;;;;;3.72;0.80;;;;;;;7.78;100.00;96022.69;5033746;28;20029;-64
2022/02/05 15:01:27;;;;;;;1.67;0.90;;;;;;;7.82;100.00;96027.38;5031890;28;20068;-63
2022/02/05 15:03:58;;;;;;;2.08;0.90;;;;;;;7.61;100.00;96048.34;5033788;28;20052;-63
2022/02/05 15:06:26;;;;;;;5.05;0.95;;;;;;;7.55;100.00;96048.19;5031403;28;20022;-64
2022/02/05 15:08:56;;;;;;;1.33;0.90;;;;;;;7.48;100.00;96042.09;5033261;28;20029;-64
2022/02/05 15:11:23;;;;;;;2.55;1.08;;;;;;;7.39;100.00;96045.31;5033645;28;20129;-63
2022/02/05 15:13:48;;;;;;;2.97;0.73;;;;;;;7.34;100.00;96034.47;5031469;28;20033;-64